sensor_id;sensor_type;location;lat;lon;timestamp;pressure;altitude;pressure_sealevel;temperature;humidity
79129;BME280;68529;43.286;23.360;2024-01-25T00:01:12;99624.16;;;8.26;65.47
79129;BME280;68529;43.286;23.360;2024-01-25T00:03:38;99629.63;;;8.12;65.31
79129;BME280;68529;43.286;23.360;2024-01-25T00:06:05;99635.00;;;8.06;65.69
79129;BME280;68529;43.286;23.360;2024-01-25T00:08:30;99627.31;;;7.97;66.35
79129;BME280;68529;43.286;23.360;2024-01-25T00:10:56;99625.63;;;7.93;66.27
79129;BME280;68529;43.286;23.360;2024-01-25T00:13:21;99610.84;;;7.92;66.77
79129;BME280;68529;43.286;23.360;2024-01-25T00:15:46;99614.34;;;7.91;66.93
79129;BME280;68529;43.286;23.360;2024-01-25T00:18:12;99622.19;;;7.91;66.85
79129;BME280;68529;43.286;23.360;2024-01-25T00:20:37;99627.47;;;7.88;66.65
79129;BME280;68529;43.286;23.360;2024-01-25T00:23:03;99634.47;;;7.86;66.74
79129;BME280;68529;43.286;23.360;2024-01-25T00:25:28;99623.16;;;7.86;66.89
79129;BME280;68529;43.286;23.360;2024-01-25T00:27:54;99617.88;;;7.87;66.54
79129;BME280;68529;43.286;23.360;2024-01-25T00:30:19;99617.97;;;7.84;67.32
79129;BME280;68529;43.286;23.360;2024-01-25T00:32:44;99622.28;;;7.87;67.92
79129;BME280;68529;43.286;23.360;2024-01-25T00:35:10;99625.63;;;7.93;67.57
79129;BME280;68529;43.286;23.360;2024-01-25T00:37:39;99620.28;;;7.99;67.64
79129;BME280;68529;43.286;23.360;2024-01-25T00:40:05;99614.22;;;7.97;67.47
79129;BME280;68529;43.286;23.360;2024-01-25T00:42:31;99611.63;;;7.96;67.67
79129;BME280;68529;43.286;23.360;2024-01-25T00:45:00;99616.84;;;7.97;67.90
79129;BME280;68529;43.286;23.360;2024-01-25T00:47:25;99611.56;;;8.00;67.89
79129;BME280;68529;43.286;23.360;2024-01-25T00:49:51;99615.00;;;8.04;68.19
79129;BME280;68529;43.286;23.360;2024-01-25T00:52:17;99611.44;;;8.06;67.25
79129;BME280;68529;43.286;23.360;2024-01-25T00:54:42;99597.41;;;8.10;67.46
79129;BME280;68529;43.286;23.360;2024-01-25T00:57:09;99590.91;;;8.33;67.69
79129;BME280;68529;43.286;23.360;2024-01-25T00:59:35;99582.69;;;8.51;66.78
79129;BME280;68529;43.286;23.360;2024-01-25T01:02:01;99583.56;;;8.51;66.56
79129;BME280;68529;43.286;23.360;2024-01-25T01:04:29;99578.34;;;8.50;66.26
79129;BME280;68529;43.286;23.360;2024-01-25T01:06:55;99554.84;;;8.47;66.12
79129;BME280;68529;43.286;23.360;2024-01-25T01:09:20;99568.91;;;8.43;66.34
79129;BME280;68529;43.286;23.360;2024-01-25T01:11:46;99548.03;;;8.38;66.65
79129;BME280;68529;43.286;23.360;2024-01-25T01:14:12;99563.78;;;8.37;66.66
79129;BME280;68529;43.286;23.360;2024-01-25T01:16:37;99567.28;;;8.36;66.93
79129;BME280;68529;43.286;23.360;2024-01-25T01:19:02;99555.94;;;8.35;66.71
79129;BME280;68529;43.286;23.360;2024-01-25T01:21:34;99555.88;;;8.38;66.57
79129;BME280;68529;43.286;23.360;2024-01-25T01:24:00;99554.91;;;8.44;66.39
79129;BME280;68529;43.286;23.360;2024-01-25T01:26:26;99551.16;;;8.57;65.98
79129;BME280;68529;43.286;23.360;2024-01-25T01:28:51;99544.00;;;8.65;65.76
79129;BME280;68529;43.286;23.360;2024-01-25T01:31:17;99543.06;;;8.66;65.59
79129;BME280;68529;43.286;23.360;2024-01-25T01:33:42;99542.22;;;8.65;65.66
79129;BME280;68529;43.286;23.360;2024-01-25T01:36:07;99527.34;;;8.67;65.15
79129;BME280;68529;43.286;23.360;2024-01-25T01:38:33;99526.22;;;8.79;64.98
79129;BME280;68529;43.286;23.360;2024-01-25T01:40:58;99528.84;;;8.77;64.76
79129;BME280;68529;43.286;23.360;2024-01-25T01:43:24;99526.91;;;8.87;64.31
79129;BME280;68529;43.286;23.360;2024-01-25T01:45:49;99511.13;;;8.90;63.95
79129;BME280;68529;43.286;23.360;2024-01-25T01:48:16;99509.38;;;8.89;63.91
79129;BME280;68529;43.286;23.360;2024-01-25T01:50:43;99514.28;;;9.03;63.38
79129;BME280;68529;43.286;23.360;2024-01-25T01:53:10;99519.25;;;9.13;62.62
79129;BME280;68529;43.286;23.360;2024-01-25T01:55:36;99509.38;;;9.24;61.89
79129;BME280;68529;43.286;23.360;2024-01-25T01:58:01;99502.53;;;9.54;59.71
79129;BME280;68529;43.286;23.360;2024-01-25T02:00:29;99511.84;;;9.64;60.02
79129;BME280;68529;43.286;23.360;2024-01-25T02:02:55;99514.09;;;9.79;58.83
79129;BME280;68529;43.286;23.360;2024-01-25T02:05:23;99500.91;;;9.81;59.28
79129;BME280;68529;43.286;23.360;2024-01-25T02:07:49;99498.13;;;9.87;58.82
79129;BME280;68529;43.286;23.360;2024-01-25T02:10:14;99495.50;;;9.87;59.01
79129;BME280;68529;43.286;23.360;2024-01-25T02:12:39;99487.56;;;9.88;58.32
79129;BME280;68529;43.286;23.360;2024-01-25T02:15:05;99504.09;;;9.92;57.85
79129;BME280;68529;43.286;23.360;2024-01-25T02:17:30;99503.94;;;9.98;58.13
79129;BME280;68529;43.286;23.360;2024-01-25T02:19:56;99506.41;;;10.03;57.61
79129;BME280;68529;43.286;23.360;2024-01-25T02:22:21;99526.44;;;10.07;57.28
79129;BME280;68529;43.286;23.360;2024-01-25T02:24:47;99503.41;;;10.18;56.37
79129;BME280;68529;43.286;23.360;2024-01-25T02:27:12;99505.97;;;10.19;56.77
79129;BME280;68529;43.286;23.360;2024-01-25T02:29:37;99511.31;;;10.16;56.86
79129;BME280;68529;43.286;23.360;2024-01-25T02:32:03;99518.25;;;10.19;56.68
79129;BME280;68529;43.286;23.360;2024-01-25T02:34:29;99497.22;;;10.20;56.26
79129;BME280;68529;43.286;23.360;2024-01-25T02:36:54;99496.03;;;10.30;55.77
79129;BME280;68529;43.286;23.360;2024-01-25T02:39:20;99500.44;;;10.30;55.65
79129;BME280;68529;43.286;23.360;2024-01-25T02:41:45;99496.03;;;10.30;55.41
79129;BME280;68529;43.286;23.360;2024-01-25T02:44:11;99495.13;;;10.31;55.37
79129;BME280;68529;43.286;23.360;2024-01-25T02:46:37;99488.03;;;10.35;54.66
79129;BME280;68529;43.286;23.360;2024-01-25T02:49:03;99499.41;;;10.35;54.42
79129;BME280;68529;43.286;23.360;2024-01-25T02:51:28;99499.44;;;10.34;53.97
79129;BME280;68529;43.286;23.360;2024-01-25T02:53:54;99490.69;;;10.33;54.25
79129;BME280;68529;43.286;23.360;2024-01-25T02:56:19;99486.06;;;10.41;53.34
79129;BME280;68529;43.286;23.360;2024-01-25T02:58:45;99495.41;;;10.51;53.00
79129;BME280;68529;43.286;23.360;2024-01-25T03:01:10;99503.31;;;10.50;53.14
79129;BME280;68529;43.286;23.360;2024-01-25T03:03:35;99500.69;;;10.50;52.64
79129;BME280;68529;43.286;23.360;2024-01-25T03:06:02;99498.91;;;10.52;52.25
79129;BME280;68529;43.286;23.360;2024-01-25T03:08:27;99498.81;;;10.55;52.65
79129;BME280;68529;43.286;23.360;2024-01-25T03:10:53;99495.13;;;10.61;52.63
79129;BME280;68529;43.286;23.360;2024-01-25T03:13:18;99494.28;;;10.60;52.43
79129;BME280;68529;43.286;23.360;2024-01-25T03:15:44;99478.69;;;10.54;52.39
79129;BME280;68529;43.286;23.360;2024-01-25T03:18:10;99493.44;;;10.58;51.87
79129;BME280;68529;43.286;23.360;2024-01-25T03:20:36;99508.28;;;10.61;51.80
79129;BME280;68529;43.286;23.360;2024-01-25T03:23:01;99505.66;;;10.59;51.70
79129;BME280;68529;43.286;23.360;2024-01-25T03:25:28;99507.25;;;10.65;51.27
79129;BME280;68529;43.286;23.360;2024-01-25T03:27:53;99517.81;;;10.63;51.33
79129;BME280;68529;43.286;23.360;2024-01-25T03:30:18;99516.97;;;10.61;51.24
79129;BME280;68529;43.286;23.360;2024-01-25T03:32:45;99523.19;;;10.59;51.60
79129;BME280;68529;43.286;23.360;2024-01-25T03:35:11;99515.38;;;10.57;52.03
79129;BME280;68529;43.286;23.360;2024-01-25T03:37:36;99518.88;;;10.56;52.05
79129;BME280;68529;43.286;23.360;2024-01-25T03:40:02;99518.97;;;10.53;51.43
79129;BME280;68529;43.286;23.360;2024-01-25T03:42:28;99518.13;;;10.52;51.34
79129;BME280;68529;43.286;23.360;2024-01-25T03:44:54;99521.59;;;10.55;51.07
79129;BME280;68529;43.286;23.360;2024-01-25T03:47:19;99524.06;;;10.59;50.45
79129;BME280;68529;43.286;23.360;2024-01-25T03:49:45;99526.00;;;10.52;50.60
79129;BME280;68529;43.286;23.360;2024-01-25T03:52:10;99533.94;;;10.51;50.81
79129;BME280;68529;43.286;23.360;2024-01-25T03:54:35;99531.31;;;10.51;50.86
79129;BME280;68529;43.286;23.360;2024-01-25T03:57:01;99542.69;;;10.51;50.46
79129;BME280;68529;43.286;23.360;2024-01-25T03:59:26;99553.19;;;10.51;50.88
79129;BME280;68529;43.286;23.360;2024-01-25T04:01:52;99547.94;;;10.51;51.24
79129;BME280;68529;43.286;23.360;2024-01-25T04:04:17;99555.97;;;10.45;51.13
79129;BME280;68529;43.286;23.360;2024-01-25T04:06:43;99558.69;;;10.42;51.26
79129;BME280;68529;43.286;23.360;2024-01-25T04:09:09;99552.63;;;10.40;51.09
79129;BME280;68529;43.286;23.360;2024-01-25T04:11:36;99559.72;;;10.37;50.90
79129;BME280;68529;43.286;23.360;2024-01-25T04:14:01;99563.38;;;10.31;50.87
79129;BME280;68529;43.286;23.360;2024-01-25T04:16:27;99568.56;;;10.34;50.55
79129;BME280;68529;43.286;23.360;2024-01-25T04:18:52;99566.88;;;10.32;50.70
79129;BME280;68529;43.286;23.360;2024-01-25T04:21:18;99573.94;;;10.30;50.02
79129;BME280;68529;43.286;23.360;2024-01-25T04:23:43;99569.63;;;10.27;50.27
79129;BME280;68529;43.286;23.360;2024-01-25T04:26:08;99573.09;;;10.28;50.34
79129;BME280;68529;43.286;23.360;2024-01-25T04:28:34;99574.13;;;10.24;50.47
79129;BME280;68529;43.286;23.360;2024-01-25T04:30:59;99568.09;;;10.20;50.26
79129;BME280;68529;43.286;23.360;2024-01-25T04:33:24;99571.59;;;10.19;50.31
79129;BME280;68529;43.286;23.360;2024-01-25T04:35:50;99581.44;;;10.13;50.54
79129;BME280;68529;43.286;23.360;2024-01-25T04:38:15;99580.50;;;10.14;50.64
79129;BME280;68529;43.286;23.360;2024-01-25T04:40:40;99584.13;;;10.08;50.48
79129;BME280;68529;43.286;23.360;2024-01-25T04:43:06;99580.69;;;10.06;50.67
79129;BME280;68529;43.286;23.360;2024-01-25T04:45:31;99585.00;;;10.09;50.92
79129;BME280;68529;43.286;23.360;2024-01-25T04:47:57;99591.09;;;10.09;50.46
79129;BME280;68529;43.286;23.360;2024-01-25T04:50:22;99583.28;;;10.08;50.61
79129;BME280;68529;43.286;23.360;2024-01-25T04:52:48;99586.75;;;10.08;50.24
79129;BME280;68529;43.286;23.360;2024-01-25T04:55:13;99590.31;;;10.06;50.60
79129;BME280;68529;43.286;23.360;2024-01-25T04:57:39;99589.56;;;10.02;50.67
79129;BME280;68529;43.286;23.360;2024-01-25T05:00:04;99595.72;;;10.00;50.72
79129;BME280;68529;43.286;23.360;2024-01-25T05:02:30;99599.34;;;9.95;50.66
79129;BME280;68529;43.286;23.360;2024-01-25T05:04:55;99594.91;;;9.98;50.64
79129;BME280;68529;43.286;23.360;2024-01-25T05:07:21;99600.16;;;9.98;50.18
79129;BME280;68529;43.286;23.360;2024-01-25T05:09:47;99588.69;;;10.02;49.81
79129;BME280;68529;43.286;23.360;2024-01-25T05:12:12;99591.25;;;10.03;50.38
79129;BME280;68529;43.286;23.360;2024-01-25T05:14:38;99603.56;;;10.01;50.34
79129;BME280;68529;43.286;23.360;2024-01-25T05:17:03;99596.75;;;9.94;50.43
79129;BME280;68529;43.286;23.360;2024-01-25T05:19:28;99596.00;;;9.90;50.21
79129;BME280;68529;43.286;23.360;2024-01-25T05:21:54;99591.56;;;9.91;50.50
79129;BME280;68529;43.286;23.360;2024-01-25T05:24:19;99582.16;;;9.84;50.42
79129;BME280;68529;43.286;23.360;2024-01-25T05:26:44;99603.28;;;9.79;50.52
79129;BME280;68529;43.286;23.360;2024-01-25T05:29:10;99603.41;;;9.73;50.62
79129;BME280;68529;43.286;23.360;2024-01-25T05:31:35;99593.88;;;9.71;50.22
79129;BME280;68529;43.286;23.360;2024-01-25T05:34:00;99611.38;;;9.70;50.15
79129;BME280;68529;43.286;23.360;2024-01-25T05:36:26;99606.00;;;9.75;50.28
79129;BME280;68529;43.286;23.360;2024-01-25T05:38:51;99610.38;;;9.74;50.01
79129;BME280;68529;43.286;23.360;2024-01-25T05:41:17;99615.59;;;9.76;49.91
79129;BME280;68529;43.286;23.360;2024-01-25T05:43:42;99625.16;;;9.78;50.06
79129;BME280;68529;43.286;23.360;2024-01-25T05:46:07;99620.03;;;9.74;49.94
79129;BME280;68529;43.286;23.360;2024-01-25T05:48:34;99626.25;;;9.70;49.75
79129;BME280;68529;43.286;23.360;2024-01-25T05:51:00;99637.53;;;9.72;49.90
79129;BME280;68529;43.286;23.360;2024-01-25T05:53:25;99634.91;;;9.73;49.44
79129;BME280;68529;43.286;23.360;2024-01-25T05:55:50;99635.59;;;9.80;49.28
79129;BME280;68529;43.286;23.360;2024-01-25T05:58:16;99636.47;;;9.80;49.19
79129;BME280;68529;43.286;23.360;2024-01-25T06:00:42;99638.22;;;9.80;48.21
79129;BME280;68529;43.286;23.360;2024-01-25T06:03:07;99634.03;;;9.73;48.38
79129;BME280;68529;43.286;23.360;2024-01-25T06:05:33;99648.84;;;9.75;48.71
79129;BME280;68529;43.286;23.360;2024-01-25T06:07:58;99637.53;;;9.72;48.70
79129;BME280;68529;43.286;23.360;2024-01-25T06:10:24;99645.41;;;9.73;48.07
79129;BME280;68529;43.286;23.360;2024-01-25T06:12:49;99637.47;;;9.75;48.60
79129;BME280;68529;43.286;23.360;2024-01-25T06:15:15;99646.44;;;9.66;48.26
79129;BME280;68529;43.286;23.360;2024-01-25T06:17:40;99647.41;;;9.62;48.52
79129;BME280;68529;43.286;23.360;2024-01-25T06:20:06;99646.53;;;9.62;47.91
79129;BME280;68529;43.286;23.360;2024-01-25T06:22:31;99651.72;;;9.65;47.93
79129;BME280;68529;43.286;23.360;2024-01-25T06:24:56;99662.13;;;9.68;48.07
79129;BME280;68529;43.286;23.360;2024-01-25T06:27:22;99672.63;;;9.68;47.40
79129;BME280;68529;43.286;23.360;2024-01-25T06:29:47;99665.72;;;9.64;47.71
79129;BME280;68529;43.286;23.360;2024-01-25T06:32:12;99672.66;;;9.66;47.35
79129;BME280;68529;43.286;23.360;2024-01-25T06:34:38;99677.81;;;9.69;47.54
79129;BME280;68529;43.286;23.360;2024-01-25T06:37:04;99682.97;;;9.74;47.22
79129;BME280;68529;43.286;23.360;2024-01-25T06:39:29;99678.56;;;9.76;47.12
79129;BME280;68529;43.286;23.360;2024-01-25T06:41:54;99689.03;;;9.76;47.39
79129;BME280;68529;43.286;23.360;2024-01-25T06:44:20;99686.50;;;9.73;47.28
79129;BME280;68529;43.286;23.360;2024-01-25T06:46:45;99683.81;;;9.74;46.58
79129;BME280;68529;43.286;23.360;2024-01-25T06:49:11;99689.06;;;9.74;46.91
79129;BME280;68529;43.286;23.360;2024-01-25T06:51:36;99693.56;;;9.69;46.95
79129;BME280;68529;43.286;23.360;2024-01-25T06:54:02;99691.00;;;9.68;47.11
79129;BME280;68529;43.286;23.360;2024-01-25T06:56:27;99679.56;;;9.70;46.81
79129;BME280;68529;43.286;23.360;2024-01-25T06:58:52;99693.53;;;9.71;47.25
79129;BME280;68529;43.286;23.360;2024-01-25T07:01:23;99690.06;;;9.69;47.22
79129;BME280;68529;43.286;23.360;2024-01-25T07:03:49;99686.44;;;9.74;47.25
79129;BME280;68529;43.286;23.360;2024-01-25T07:06:18;99684.63;;;9.78;46.86
79129;BME280;68529;43.286;23.360;2024-01-25T07:08:44;99692.41;;;9.82;46.86
79129;BME280;68529;43.286;23.360;2024-01-25T07:11:09;99693.22;;;9.83;46.96
79129;BME280;68529;43.286;23.360;2024-01-25T07:13:35;99694.09;;;9.85;46.51
79129;BME280;68529;43.286;23.360;2024-01-25T07:16:00;99699.25;;;9.88;46.91
79129;BME280;68529;43.286;23.360;2024-01-25T07:18:26;99691.28;;;9.91;46.79
79129;BME280;68529;43.286;23.360;2024-01-25T07:20:51;99703.59;;;9.89;46.91
79129;BME280;68529;43.286;23.360;2024-01-25T07:23:17;99715.66;;;9.96;46.45
79129;BME280;68529;43.286;23.360;2024-01-25T07:25:42;99704.22;;;9.99;46.35
79129;BME280;68529;43.286;23.360;2024-01-25T07:28:08;99696.38;;;9.97;46.29
79129;BME280;68529;43.286;23.360;2024-01-25T07:30:33;99699.00;;;9.97;46.54
79129;BME280;68529;43.286;23.360;2024-01-25T07:32:59;99696.31;;;10.00;46.54
79129;BME280;68529;43.286;23.360;2024-01-25T07:35:24;99702.44;;;10.01;46.52
79129;BME280;68529;43.286;23.360;2024-01-25T07:37:49;99694.44;;;10.05;46.60
79129;BME280;68529;43.286;23.360;2024-01-25T07:40:15;99703.09;;;10.09;46.82
79129;BME280;68529;43.286;23.360;2024-01-25T07:42:40;99704.84;;;10.08;46.76
79129;BME280;68529;43.286;23.360;2024-01-25T07:45:06;99689.91;;;10.12;46.85
79129;BME280;68529;43.286;23.360;2024-01-25T07:47:32;99700.28;;;10.18;47.10
79129;BME280;68529;43.286;23.360;2024-01-25T07:49:57;99706.31;;;10.21;46.64
79129;BME280;68529;43.286;23.360;2024-01-25T07:52:23;99700.88;;;10.27;46.48
79129;BME280;68529;43.286;23.360;2024-01-25T07:54:48;99706.13;;;10.29;46.35
79129;BME280;68529;43.286;23.360;2024-01-25T07:57:13;99704.31;;;10.31;46.53
79129;BME280;68529;43.286;23.360;2024-01-25T07:59:39;99707.78;;;10.31;46.17
79129;BME280;68529;43.286;23.360;2024-01-25T08:02:04;99705.09;;;10.34;46.54
79129;BME280;68529;43.286;23.360;2024-01-25T08:04:29;99709.53;;;10.32;46.95
79129;BME280;68529;43.286;23.360;2024-01-25T08:06:55;99707.78;;;10.31;46.84
79129;BME280;68529;43.286;23.360;2024-01-25T08:09:22;99696.44;;;10.31;46.78
79129;BME280;68529;43.286;23.360;2024-01-25T08:11:48;99704.34;;;10.29;46.38
79129;BME280;68529;43.286;23.360;2024-01-25T08:14:13;99696.34;;;10.34;46.44
79129;BME280;68529;43.286;23.360;2024-01-25T08:16:39;99692.69;;;10.39;46.36
79129;BME280;68529;43.286;23.360;2024-01-25T08:19:04;99692.78;;;10.36;46.63
79129;BME280;68529;43.286;23.360;2024-01-25T08:21:30;99703.19;;;10.39;46.66
79129;BME280;68529;43.286;23.360;2024-01-25T08:23:55;99700.63;;;10.38;46.94
79129;BME280;68529;43.286;23.360;2024-01-25T08:26:21;99684.16;;;10.33;46.68
79129;BME280;68529;43.286;23.360;2024-01-25T08:28:46;99691.09;;;10.34;46.71
79129;BME280;68529;43.286;23.360;2024-01-25T08:31:12;99688.47;;;10.34;46.54
79129;BME280;68529;43.286;23.360;2024-01-25T08:33:38;99685.69;;;10.40;46.13
79129;BME280;68529;43.286;23.360;2024-01-25T08:36:09;99687.22;;;10.48;46.33
79129;BME280;68529;43.286;23.360;2024-01-25T08:38:34;99678.31;;;10.52;46.43
79129;BME280;68529;43.286;23.360;2024-01-25T08:41:00;99676.38;;;10.61;46.31
79129;BME280;68529;43.286;23.360;2024-01-25T08:43:25;99670.91;;;10.68;46.03
79129;BME280;68529;43.286;23.360;2024-01-25T08:45:50;99679.56;;;10.72;46.00
79129;BME280;68529;43.286;23.360;2024-01-25T08:48:16;99666.28;;;10.76;45.88
79129;BME280;68529;43.286;23.360;2024-01-25T08:50:41;99669.69;;;10.80;45.60
79129;BME280;68529;43.286;23.360;2024-01-25T08:53:06;99676.31;;;10.93;45.73
79129;BME280;68529;43.286;23.360;2024-01-25T08:55:32;99677.00;;;10.99;44.88
79129;BME280;68529;43.286;23.360;2024-01-25T08:57:57;99680.44;;;11.01;45.30
79129;BME280;68529;43.286;23.360;2024-01-25T09:00:23;99677.69;;;11.06;44.49
79129;BME280;68529;43.286;23.360;2024-01-25T09:02:48;99674.06;;;11.10;44.98
79129;BME280;68529;43.286;23.360;2024-01-25T09:05:14;99684.59;;;11.08;45.26
79129;BME280;68529;43.286;23.360;2024-01-25T09:07:40;99669.59;;;11.14;45.11
79129;BME280;68529;43.286;23.360;2024-01-25T09:10:06;99668.53;;;11.19;44.95
79129;BME280;68529;43.286;23.360;2024-01-25T09:12:31;99674.44;;;11.26;44.97
79129;BME280;68529;43.286;23.360;2024-01-25T09:14:57;99673.50;;;11.28;44.75
79129;BME280;68529;43.286;23.360;2024-01-25T09:17:22;99674.34;;;11.30;44.23
79129;BME280;68529;43.286;23.360;2024-01-25T09:19:48;99664.72;;;11.29;44.25
79129;BME280;68529;43.286;23.360;2024-01-25T09:22:17;99660.22;;;11.33;44.60
79129;BME280;68529;43.286;23.360;2024-01-25T09:24:45;99660.59;;;11.48;44.16
79129;BME280;68529;43.286;23.360;2024-01-25T09:27:11;99658.69;;;11.53;43.98
79129;BME280;68529;43.286;23.360;2024-01-25T09:29:36;99646.19;;;11.60;43.60
79129;BME280;68529;43.286;23.360;2024-01-25T09:32:04;99649.78;;;11.57;44.16
79129;BME280;68529;43.286;23.360;2024-01-25T09:34:29;99646.13;;;11.61;44.11
79129;BME280;68529;43.286;23.360;2024-01-25T09:36:55;99649.31;;;11.73;44.11
79129;BME280;68529;43.286;23.360;2024-01-25T09:39:20;99647.50;;;11.75;43.66
79129;BME280;68529;43.286;23.360;2024-01-25T09:41:46;99637.09;;;11.72;43.79
79129;BME280;68529;43.286;23.360;2024-01-25T09:44:11;99632.78;;;11.69;44.26
79129;BME280;68529;43.286;23.360;2024-01-25T09:46:38;99631.72;;;11.75;44.10
79129;BME280;68529;43.286;23.360;2024-01-25T09:49:05;99628.06;;;11.79;43.99
79129;BME280;68529;43.286;23.360;2024-01-25T09:51:36;99624.44;;;11.83;43.98
79129;BME280;68529;43.286;23.360;2024-01-25T09:54:03;99619.06;;;11.86;43.86
79129;BME280;68529;43.286;23.360;2024-01-25T09:56:31;99611.97;;;11.88;43.88
79129;BME280;68529;43.286;23.360;2024-01-25T09:58:57;99605.72;;;11.92;43.44
79129;BME280;68529;43.286;23.360;2024-01-25T10:01:23;99613.69;;;11.89;43.68
79129;BME280;68529;43.286;23.360;2024-01-25T10:03:49;99612.66;;;11.93;43.76
79129;BME280;68529;43.286;23.360;2024-01-25T10:06:15;99617.94;;;11.93;43.76
79129;BME280;68529;43.286;23.360;2024-01-25T10:08:41;99616.72;;;12.03;43.16
79129;BME280;68529;43.286;23.360;2024-01-25T10:11:07;99605.75;;;12.15;42.43
79129;BME280;68529;43.286;23.360;2024-01-25T10:13:47;99614.03;;;12.29;43.25
79129;BME280;68529;43.286;23.360;2024-01-25T10:16:17;99608.44;;;12.38;43.49
79129;BME280;68529;43.286;23.360;2024-01-25T10:18:45;99603.72;;;12.48;42.20
79129;BME280;68529;43.286;23.360;2024-01-25T10:21:11;99598.72;;;12.63;42.75
79129;BME280;68529;43.286;23.360;2024-01-25T10:23:37;99604.06;;;12.85;42.32
79129;BME280;68529;43.286;23.360;2024-01-25T10:26:02;99595.31;;;13.51;41.07
79129;BME280;68529;43.286;23.360;2024-01-25T10:28:35;99592.53;;;13.76;41.12
79129;BME280;68529;43.286;23.360;2024-01-25T10:31:01;99592.19;;;13.83;40.70
79129;BME280;68529;43.286;23.360;2024-01-25T10:33:30;99589.91;;;13.54;40.88
79129;BME280;68529;43.286;23.360;2024-01-25T10:35:56;99580.41;;;13.28;39.81
79129;BME280;68529;43.286;23.360;2024-01-25T10:38:30;99583.72;;;12.89;41.13
79129;BME280;68529;43.286;23.360;2024-01-25T10:40:59;99586.13;;;12.71;41.14
79129;BME280;68529;43.286;23.360;2024-01-25T10:43:25;99587.31;;;12.63;42.20
79129;BME280;68529;43.286;23.360;2024-01-25T10:45:51;99579.81;;;12.52;41.92
79129;BME280;68529;43.286;23.360;2024-01-25T10:48:21;99588.91;;;12.44;42.62
79129;BME280;68529;43.286;23.360;2024-01-25T10:50:47;99578.44;;;12.42;42.86
79129;BME280;68529;43.286;23.360;2024-01-25T10:53:15;99571.66;;;12.35;42.79
79129;BME280;68529;43.286;23.360;2024-01-25T10:55:41;99566.09;;;12.19;42.84
79129;BME280;68529;43.286;23.360;2024-01-25T10:58:07;99570.72;;;12.13;43.04
79129;BME280;68529;43.286;23.360;2024-01-25T11:00:36;99562.91;;;12.11;42.59
79129;BME280;68529;43.286;23.360;2024-01-25T11:03:02;99553.84;;;12.18;42.12
79129;BME280;68529;43.286;23.360;2024-01-25T11:05:30;99549.72;;;12.35;42.37
79129;BME280;68529;43.286;23.360;2024-01-25T11:07:55;99546.69;;;12.45;42.38
79129;BME280;68529;43.286;23.360;2024-01-25T11:10:23;99549.19;;;12.73;42.03
79129;BME280;68529;43.286;23.360;2024-01-25T11:12:58;99549.75;;;12.81;41.39
79129;BME280;68529;43.286;23.360;2024-01-25T11:15:34;99537.38;;;13.48;40.44
79129;BME280;68529;43.286;23.360;2024-01-25T11:18:04;99527.84;;;13.86;38.13
79129;BME280;68529;43.286;23.360;2024-01-25T11:20:34;99530.00;;;13.96;39.38
79129;BME280;68529;43.286;23.360;2024-01-25T11:23:03;99529.88;;;14.40;38.55
79129;BME280;68529;43.286;23.360;2024-01-25T11:25:31;99519.56;;;14.14;38.60
79129;BME280;68529;43.286;23.360;2024-01-25T11:27:57;99509.09;;;14.51;38.11
79129;BME280;68529;43.286;23.360;2024-01-25T11:30:23;99518.84;;;15.05;37.12
79129;BME280;68529;43.286;23.360;2024-01-25T11:32:49;99501.56;;;14.98;36.96
79129;BME280;68529;43.286;23.360;2024-01-25T11:35:15;99514.47;;;14.68;37.81
79129;BME280;68529;43.286;23.360;2024-01-25T11:37:50;99503.66;;;14.54;38.51
79129;BME280;68529;43.286;23.360;2024-01-25T11:40:18;99500.28;;;14.32;38.17
79129;BME280;68529;43.286;23.360;2024-01-25T11:42:45;99500.19;;;13.94;38.26
79129;BME280;68529;43.286;23.360;2024-01-25T11:45:12;99496.16;;;13.66;39.16
79129;BME280;68529;43.286;23.360;2024-01-25T11:47:38;99493.56;;;13.44;38.58
79129;BME280;68529;43.286;23.360;2024-01-25T11:50:05;99497.53;;;13.34;39.16
79129;BME280;68529;43.286;23.360;2024-01-25T11:52:32;99503.41;;;13.19;39.32
79129;BME280;68529;43.286;23.360;2024-01-25T11:55:01;99499.47;;;13.29;39.62
79129;BME280;68529;43.286;23.360;2024-01-25T11:57:27;99503.88;;;13.50;39.72
79129;BME280;68529;43.286;23.360;2024-01-25T11:59:55;99499.25;;;13.75;39.02
79129;BME280;68529;43.286;23.360;2024-01-25T12:02:20;99479.13;;;13.73;38.81
79129;BME280;68529;43.286;23.360;2024-01-25T12:04:47;99474.91;;;13.69;38.97
79129;BME280;68529;43.286;23.360;2024-01-25T12:07:12;99467.59;;;13.75;38.50
79129;BME280;68529;43.286;23.360;2024-01-25T12:09:38;99466.00;;;13.71;38.53
79129;BME280;68529;43.286;23.360;2024-01-25T12:12:04;99485.00;;;13.59;38.47
79129;BME280;68529;43.286;23.360;2024-01-25T12:14:30;99495.56;;;13.59;38.51
79129;BME280;68529;43.286;23.360;2024-01-25T12:16:55;99494.84;;;13.76;38.47
79129;BME280;68529;43.286;23.360;2024-01-25T12:19:21;99483.56;;;13.92;37.51
79129;BME280;68529;43.286;23.360;2024-01-25T12:21:47;99478.78;;;14.00;38.00
79129;BME280;68529;43.286;23.360;2024-01-25T12:24:12;99491.03;;;14.01;37.73
79129;BME280;68529;43.286;23.360;2024-01-25T12:26:38;99493.19;;;13.73;37.43
79129;BME280;68529;43.286;23.360;2024-01-25T12:29:04;99487.19;;;13.70;37.25
79129;BME280;68529;43.286;23.360;2024-01-25T12:31:30;99489.59;;;13.54;37.51
79129;BME280;68529;43.286;23.360;2024-01-25T12:33:56;99473.44;;;13.41;37.99
79129;BME280;68529;43.286;23.360;2024-01-25T12:36:22;99472.97;;;13.32;38.37
79129;BME280;68529;43.286;23.360;2024-01-25T12:38:47;99468.59;;;13.11;38.63
79129;BME280;68529;43.286;23.360;2024-01-25T12:41:14;99482.91;;;13.04;38.94
79129;BME280;68529;43.286;23.360;2024-01-25T12:43:40;99489.91;;;13.05;38.98
79129;BME280;68529;43.286;23.360;2024-01-25T12:46:05;99480.16;;;13.28;38.65